Time;durP1;ratioP1;P1;durP2;ratioP2;P2;SDS_P1;SDS_P2;PMS_P1;PMS_P2;Temp;Humidity;BMP_temperature;BMP_pressure;BME280_temperature;BME280_humidity;BME280_pressure;Samples;Min_cycle;Max_cycle;Signal;HPM_P1;HPM_P2
2022/04/18 00:00:03;;;;;;;3.97;3.10;;;7.50;77.00;;;;;;5091615;28;20183;-61
2022/04/18 00:02:29;;;;;;;3.50;3.20;;;7.40;77.10;;;;;;5083471;28;20467;-60
2022/04/18 00:04:54;;;;;;;4.17;3.47;;;7.60;77.40;;;;;;5089493;28;20247;-60
2022/04/18 00:07:20;;;;;;;4.07;3.47;;;6.90;77.50;;;;;;5088404;28;20227;-60
2022/04/18 00:09:45;;;;;;;3.33;3.03;;;7.10;78.50;;;;;;5088720;28;20554;-61
2022/04/18 00:12:11;;;;;;;3.73;3.33;;;7.40;78.90;;;;;;5087291;28;20188;-60
2022/04/18 00:14:37;;;;;;;4.23;3.50;;;6.90;79.10;;;;;;5090537;28;20268;-60
2022/04/18 00:17:03;;;;;;;3.70;3.30;;;7.40;79.60;;;;;;5084846;28;20526;-61
2022/04/18 00:19:28;;;;;;;3.90;3.10;;;7.30;79.80;;;;;;5090971;28;20695;-60
2022/04/18 00:21:54;;;;;;;5.03;3.23;;;7.20;80.10;;;;;;5088560;28;20188;-60
2022/04/18 00:24:21;;;;;;;6.77;3.57;;;7.30;80.50;;;;;;5086268;28;20215;-60
2022/04/18 00:26:47;;;;;;;3.58;3.28;;;7.40;81.20;;;;;;5090674;28;20444;-60
2022/04/18 00:29:13;;;;;;;3.83;3.50;;;7.10;81.40;;;;;;5089599;28;20177;-61
2022/04/18 00:31:39;;;;;;;5.32;3.55;;;7.20;82.40;;;;;;5089626;28;20184;-61
2022/04/18 00:34:05;;;;;;;5.50;3.50;;;6.70;81.80;;;;;;5084383;28;20597;-60
2022/04/18 00:36:31;;;;;;;4.35;3.40;;;6.80;82.30;;;;;;5090594;28;20276;-60
2022/04/18 00:38:57;;;;;;;2.70;2.50;;;7.30;83.30;;;;;;5086278;28;20180;-60
2022/04/18 00:41:22;;;;;;;4.00;3.20;;;6.40;83.70;;;;;;5089009;28;20188;-60
2022/04/18 00:43:49;;;;;;;3.83;3.43;;;6.90;85.00;;;;;;5086865;28;20764;-60
2022/04/18 00:46:17;;;;;;;4.00;3.60;;;6.80;85.00;;;;;;5089752;28;20738;-60
2022/04/18 00:48:44;;;;;;;3.50;3.20;;;6.90;84.40;;;;;;5089178;28;20628;-60
2022/04/18 00:51:15;;;;;;;5.97;3.70;;;6.90;84.90;;;;;;5090691;28;20183;-60
2022/04/18 00:53:42;;;;;;;4.30;3.75;;;6.80;84.30;;;;;;5082054;28;20603;-60
2022/04/18 00:56:09;;;;;;;3.78;2.88;;;6.70;84.60;;;;;;5088485;28;20560;-60
2022/04/18 00:58:36;;;;;;;4.78;3.28;;;6.10;84.90;;;;;;5090513;28;20628;-60
2022/04/18 01:01:03;;;;;;;4.70;3.00;;;6.80;86.00;;;;;;5085471;28;20189;-60
2022/04/18 01:03:30;;;;;;;3.42;3.13;;;6.90;86.60;;;;;;5081306;28;20213;-60
2022/04/18 01:05:58;;;;;;;5.65;3.63;;;6.60;87.00;;;;;;5088102;28;20192;-60
2022/04/18 01:08:25;;;;;;;4.22;3.70;;;6.10;86.50;;;;;;5090018;28;20698;-60
2022/04/18 01:10:51;;;;;;;7.93;3.60;;;6.30;87.70;;;;;;5087240;28;20220;-60
2022/04/18 01:13:17;;;;;;;5.18;3.78;;;6.40;87.90;;;;;;5085771;28;20617;-60
2022/04/18 01:15:42;;;;;;;3.50;3.20;;;6.60;88.30;;;;;;5088224;28;20303;-60
2022/04/18 01:18:08;;;;;;;3.33;3.10;;;6.30;88.90;;;;;;5089360;28;20178;-61
2022/04/18 01:20:35;;;;;;;3.40;3.10;;;6.40;88.90;;;;;;5090235;28;20194;-60
2022/04/18 01:23:01;;;;;;;3.85;3.55;;;6.40;89.60;;;;;;5089104;28;20206;-60
2022/04/18 01:31:09;;;;;;;4.80;3.60;;;6.20;90.00;;;;;;5089038;28;20660;-60
2022/04/18 01:33:35;;;;;;;4.57;3.73;;;6.30;90.20;;;;;;5089419;28;20204;-60
2022/04/18 01:36:01;;;;;;;3.83;3.50;;;6.20;90.60;;;;;;5089147;28;20639;-60
2022/04/18 01:38:27;;;;;;;4.03;3.63;;;5.70;90.60;;;;;;5081272;28;20286;-60
2022/04/18 01:40:53;;;;;;;3.90;3.23;;;6.00;90.70;;;;;;5086118;28;20201;-60
2022/04/18 01:43:18;;;;;;;3.43;3.13;;;6.20;91.30;;;;;;5082221;28;20252;-60
2022/04/18 01:45:45;;;;;;;4.17;3.87;;;5.80;91.00;;;;;;5086276;28;20202;-60
2022/04/18 01:48:11;;;;;;;4.72;3.45;;;6.00;91.10;;;;;;5082845;28;20179;-60
2022/04/18 01:50:37;;;;;;;4.47;3.17;;;5.50;90.80;;;;;;5088461;28;20181;-60
2022/04/18 01:53:03;;;;;;;5.37;3.40;;;6.00;91.30;;;;;;5078431;28;20204;-60
2022/04/18 01:55:29;;;;;;;3.60;3.30;;;5.90;91.50;;;;;;5082728;28;20453;-60
2022/04/18 01:57:54;;;;;;;4.47;3.80;;;6.00;91.50;;;;;;5086786;28;20191;-60
2022/04/18 02:00:20;;;;;;;3.47;3.17;;;5.90;91.80;;;;;;5081543;28;20486;-60
2022/04/18 02:02:45;;;;;;;3.87;3.50;;;5.90;92.00;;;;;;5084076;28;20207;-61
2022/04/18 02:05:11;;;;;;;3.83;3.43;;;5.70;92.30;;;;;;5070604;28;20225;-60
2022/04/18 02:07:37;;;;;;;3.60;3.30;;;5.90;92.30;;;;;;5088601;28;20555;-60
2022/04/18 02:10:03;;;;;;;7.73;3.70;;;5.60;92.80;;;;;;5086737;28;20194;-60
2022/04/18 02:12:31;;;;;;;3.85;3.35;;;5.70;92.70;;;;;;5088253;28;20194;-60
2022/04/18 02:14:57;;;;;;;5.63;3.72;;;5.60;92.70;;;;;;5086116;28;20267;-60
2022/04/18 02:17:22;;;;;;;6.10;5.60;;;5.80;93.20;;;;;;5088197;28;20191;-60
2022/04/18 02:19:48;;;;;;;3.47;3.17;;;5.80;93.20;;;;;;5086808;28;20175;-60
2022/04/18 02:22:13;;;;;;;4.53;3.43;;;5.80;93.30;;;;;;5091004;28;20638;-60
2022/04/18 02:24:40;;;;;;;4.23;3.53;;;5.80;93.40;;;;;;5082261;28;20289;-59
2022/04/18 02:27:06;;;;;;;4.22;3.55;;;5.90;93.50;;;;;;5089556;28;20176;-61
2022/04/18 02:29:33;;;;;;;3.35;3.05;;;5.50;93.70;;;;;;5086808;28;20267;-60
2022/04/18 02:34:43;;;;;;;3.70;3.20;;;5.50;93.60;;;;;;5087336;28;20217;-61
2022/04/18 02:37:10;;;;;;;3.80;3.50;;;5.70;93.60;;;;;;5083607;28;20175;-61
2022/04/18 02:39:35;;;;;;;3.60;3.30;;;5.50;93.50;;;;;;5086777;28;20441;-60
2022/04/18 02:42:01;;;;;;;4.23;3.83;;;5.50;93.70;;;;;;5089544;28;20195;-60
2022/04/18 02:44:26;;;;;;;3.40;3.13;;;5.70;94.10;;;;;;5086506;28;20210;-61
2022/04/18 02:46:52;;;;;;;4.50;3.60;;;4.90;93.80;;;;;;5088064;28;20676;-60
2022/04/18 02:49:18;;;;;;;3.80;3.50;;;5.60;94.30;;;;;;5085523;28;21198;-60
2022/04/18 02:51:43;;;;;;;3.90;3.60;;;5.30;94.20;;;;;;5086647;28;20184;-60
2022/04/18 02:54:09;;;;;;;4.50;3.70;;;5.40;94.10;;;;;;5082190;28;20238;-60
2022/04/18 02:56:34;;;;;;;3.87;3.57;;;5.10;94.20;;;;;;5086993;28;20186;-59
2022/04/18 02:59:00;;;;;;;4.43;4.03;;;5.20;94.60;;;;;;5083272;28;20182;-60
2022/04/18 03:01:25;;;;;;;4.00;3.60;;;4.80;94.80;;;;;;5082027;28;20540;-60
2022/04/18 03:03:51;;;;;;;4.10;3.70;;;5.20;95.30;;;;;;5083594;28;20599;-60
2022/04/18 03:06:17;;;;;;;3.90;3.30;;;5.20;95.40;;;;;;5089253;28;20186;-60
2022/04/18 03:08:42;;;;;;;7.40;3.97;;;5.10;95.40;;;;;;5082901;28;20183;-61
2022/04/18 03:11:09;;;;;;;3.80;3.43;;;5.10;95.70;;;;;;5081665;28;20911;-60
2022/04/18 03:13:37;;;;;;;3.50;3.20;;;4.90;95.60;;;;;;5081975;28;20202;-60
2022/04/18 03:16:05;;;;;;;7.40;4.18;;;4.80;96.10;;;;;;5082549;28;20211;-60
2022/04/18 03:18:31;;;;;;;4.28;3.80;;;4.90;96.20;;;;;;5087039;28;20643;-60
2022/04/18 03:20:57;;;;;;;5.05;3.70;;;5.30;96.20;;;;;;5090145;28;20186;-60
2022/04/18 03:23:23;;;;;;;3.77;3.47;;;5.00;96.10;;;;;;5085893;28;20207;-60
2022/04/18 03:25:48;;;;;;;4.30;3.90;;;4.50;95.90;;;;;;5087217;28;20527;-60
2022/04/18 03:28:15;;;;;;;3.90;3.60;;;4.80;96.30;;;;;;5093410;28;20483;-60
2022/04/18 03:30:41;;;;;;;4.07;3.72;;;4.40;96.40;;;;;;5089354;28;20194;-61
2022/04/18 03:33:07;;;;;;;4.03;3.22;;;5.00;96.20;;;;;;5092676;28;20202;-60
2022/04/18 03:35:33;;;;;;;4.10;3.70;;;4.30;96.30;;;;;;5090429;28;20209;-60
2022/04/18 03:40:42;;;;;;;4.80;4.10;;;4.70;96.70;;;;;;5091104;28;20186;-60
2022/04/18 03:43:08;;;;;;;6.07;3.77;;;4.70;97.00;;;;;;5091060;28;20206;-61
2022/04/18 03:45:34;;;;;;;7.00;3.60;;;4.60;97.10;;;;;;5084827;28;20547;-60
2022/04/18 03:47:59;;;;;;;3.93;3.63;;;4.90;97.10;;;;;;5088211;28;20441;-60
2022/04/18 03:50:25;;;;;;;5.10;3.87;;;5.10;97.00;;;;;;5089191;28;20711;-60
2022/04/18 03:52:51;;;;;;;3.97;3.63;;;5.30;97.30;;;;;;5090797;28;20272;-60
2022/04/18 03:55:17;;;;;;;5.40;3.77;;;4.70;96.80;;;;;;5084998;28;20221;-60
2022/04/18 03:57:42;;;;;;;4.20;3.80;;;4.80;96.80;;;;;;5092894;28;20261;-60
2022/04/18 04:00:10;;;;;;;3.77;3.37;;;4.60;96.70;;;;;;5089700;28;20438;-60
2022/04/18 04:02:36;;;;;;;4.15;3.60;;;4.50;96.90;;;;;;5087423;28;20270;-60
2022/04/18 04:05:03;;;;;;;4.03;3.37;;;4.70;96.90;;;;;;5087947;28;20283;-60
2022/04/18 04:07:28;;;;;;;4.25;3.60;;;4.70;97.00;;;;;;5093370;28;20963;-60
2022/04/18 04:09:54;;;;;;;3.80;3.50;;;4.70;97.00;;;;;;5091482;28;20271;-60
2022/04/18 04:12:24;;;;;;;5.50;4.03;;;4.50;97.30;;;;;;5086600;28;20277;-60
2022/04/18 04:14:51;;;;;;;3.88;3.58;;;4.30;97.60;;;;;;5089523;28;20220;-60
2022/04/18 04:17:17;;;;;;;4.40;4.00;;;5.00;97.80;;;;;;5089249;28;20607;-60
2022/04/18 04:19:44;;;;;;;3.87;3.50;;;3.80;97.30;;;;;;5087624;28;20204;-60
2022/04/18 04:22:12;;;;;;;4.72;4.00;;;4.10;97.80;;;;;;5092219;28;20642;-60
2022/04/18 04:24:38;;;;;;;5.07;4.28;;;4.40;97.80;;;;;;5089582;28;20673;-60
2022/04/18 04:27:04;;;;;;;5.13;4.00;;;3.90;98.10;;;;;;5089452;28;20189;-60
2022/04/18 04:29:30;;;;;;;5.03;3.95;;;4.40;98.50;;;;;;5088755;28;20435;-60
2022/04/18 04:31:55;;;;;;;7.10;4.40;;;4.50;98.70;;;;;;5071872;28;20185;-60
2022/04/18 04:34:21;;;;;;;4.77;4.37;;;4.30;98.40;;;;;;5086268;28;20216;-59
2022/04/18 04:36:47;;;;;;;3.80;3.40;;;4.40;98.80;;;;;;5091467;28;20194;-60
2022/04/18 04:39:12;;;;;;;4.10;3.77;;;4.40;98.50;;;;;;5082337;28;20185;-60
2022/04/18 04:41:38;;;;;;;5.00;3.97;;;4.00;98.80;;;;;;5091510;28;20198;-60
2022/04/18 04:44:05;;;;;;;4.20;3.80;;;4.80;99.40;;;;;;5091146;28;20204;-60
2022/04/18 04:46:31;;;;;;;4.80;4.30;;;4.00;99.10;;;;;;5088576;28;20515;-60
2022/04/18 04:48:56;;;;;;;6.50;4.87;;;3.70;98.50;;;;;;5087249;28;20655;-60
2022/04/18 04:51:22;;;;;;;4.73;4.33;;;4.70;99.00;;;;;;5086629;28;20188;-59
2022/04/18 04:53:48;;;;;;;4.50;4.10;;;4.40;98.50;;;;;;5088475;28;20216;-60
2022/04/18 04:56:14;;;;;;;5.20;4.40;;;3.90;98.20;;;;;;5086835;28;20244;-60
2022/04/18 04:58:39;;;;;;;5.13;4.30;;;4.20;98.20;;;;;;5086619;28;20553;-60
2022/04/18 05:01:07;;;;;;;5.17;4.67;;;4.00;98.30;;;;;;5087053;28;20183;-60
2022/04/18 05:03:32;;;;;;;4.53;4.10;;;3.90;98.40;;;;;;5090996;28;20220;-60
2022/04/18 05:05:58;;;;;;;7.23;4.37;;;4.00;98.70;;;;;;5085200;28;20189;-61
2022/04/18 05:08:24;;;;;;;5.27;4.20;;;4.50;98.60;;;;;;5089370;28;20282;-60
2022/04/18 05:10:49;;;;;;;4.30;3.80;;;4.40;98.90;;;;;;5085852;28;20194;-60
2022/04/18 05:13:15;;;;;;;4.63;4.17;;;4.50;99.00;;;;;;5083861;28;20290;-60
2022/04/18 05:15:40;;;;;;;5.10;4.60;;;4.40;98.90;;;;;;5085479;28;20228;-60
2022/04/18 05:18:06;;;;;;;4.03;3.67;;;4.50;98.80;;;;;;5088242;28;20218;-60
2022/04/18 05:20:31;;;;;;;5.00;4.60;;;4.50;99.40;;;;;;5087386;28;20183;-61
2022/04/18 05:22:57;;;;;;;4.40;4.00;;;4.00;98.60;;;;;;5090100;28;20199;-60
2022/04/18 05:25:24;;;;;;;4.80;4.27;;;4.70;98.80;;;;;;5088394;28;20189;-60
2022/04/18 05:27:50;;;;;;;5.10;4.20;;;4.70;98.50;;;;;;5090836;28;20173;-60
2022/04/18 05:30:15;;;;;;;4.80;4.20;;;5.30;98.60;;;;;;5089011;28;20701;-60
2022/04/18 05:32:43;;;;;;;5.23;4.50;;;4.90;98.10;;;;;;5086985;28;20937;-60
2022/04/18 05:35:09;;;;;;;4.43;4.00;;;4.80;97.80;;;;;;5088750;28;20214;-60
2022/04/18 05:37:34;;;;;;;4.93;4.43;;;4.50;97.60;;;;;;5083141;28;20201;-60
2022/04/18 05:40:00;;;;;;;4.00;3.40;;;5.20;97.70;;;;;;5090634;28;20179;-59
2022/04/18 05:42:25;;;;;;;5.40;4.87;;;5.10;97.70;;;;;;5085749;28;20184;-60
2022/04/18 05:44:51;;;;;;;4.87;4.37;;;4.90;97.30;;;;;;5086093;28;20215;-60
2022/04/18 05:47:16;;;;;;;5.37;4.43;;;5.60;97.10;;;;;;5087338;28;20182;-60
2022/04/18 05:49:42;;;;;;;4.30;3.90;;;5.50;96.50;;;;;;5088347;28;20196;-61
2022/04/18 05:52:08;;;;;;;4.60;4.20;;;5.20;96.40;;;;;;5087476;28;20648;-60
2022/04/18 05:54:33;;;;;;;6.13;5.10;;;5.70;96.70;;;;;;5087794;28;20230;-61
2022/04/18 05:57:02;;;;;;;4.03;3.63;;;5.80;95.90;;;;;;5088242;28;20539;-61
2022/04/18 05:59:28;;;;;;;4.25;3.85;;;6.10;95.70;;;;;;5081337;28;20180;-61
2022/04/18 06:01:54;;;;;;;4.73;3.97;;;5.90;95.10;;;;;;5082431;28;20198;-62
2022/04/18 06:04:19;;;;;;;5.23;4.20;;;6.00;94.60;;;;;;5089692;28;20689;-59
2022/04/18 06:06:45;;;;;;;5.17;4.13;;;6.30;94.40;;;;;;5088066;28;20190;-59
2022/04/18 06:09:10;;;;;;;4.17;3.77;;;6.70;94.30;;;;;;5085090;28;20230;-60
2022/04/18 06:11:36;;;;;;;4.70;4.23;;;6.70;93.70;;;;;;5087832;28;20192;-60
2022/04/18 06:14:02;;;;;;;5.63;5.13;;;6.80;93.40;;;;;;5083795;28;20204;-60
2022/04/18 06:16:27;;;;;;;5.63;4.80;;;6.90;93.00;;;;;;5085237;28;20649;-60
2022/04/18 06:18:53;;;;;;;5.17;4.70;;;6.90;92.70;;;;;;5090163;28;20176;-57
2022/04/18 06:21:18;;;;;;;5.23;4.73;;;7.30;92.20;;;;;;5089405;28;20212;-57
2022/04/18 06:23:44;;;;;;;6.47;5.20;;;7.80;92.10;;;;;;5089537;28;20193;-56
2022/04/18 06:26:09;;;;;;;5.30;4.80;;;7.90;91.20;;;;;;5080737;28;20180;-57
2022/04/18 06:28:35;;;;;;;5.90;4.83;;;8.00;90.50;;;;;;5084922;28;20183;-57
2022/04/18 06:31:00;;;;;;;5.50;5.00;;;8.30;90.30;;;;;;5086163;28;20242;-57
2022/04/18 06:33:28;;;;;;;5.60;4.80;;;9.10;90.20;;;;;;5090012;28;20208;-57
2022/04/18 06:35:53;;;;;;;4.65;4.25;;;8.40;87.30;;;;;;5068281;28;20208;-58
2022/04/18 06:38:19;;;;;;;5.70;5.20;;;8.60;86.70;;;;;;5087394;28;20246;-57
2022/04/18 06:40:45;;;;;;;6.80;4.70;;;8.60;86.50;;;;;;5089368;28;20207;-57
2022/04/18 06:43:10;;;;;;;5.87;5.27;;;9.10;86.70;;;;;;5087293;28;20205;-58
2022/04/18 06:45:36;;;;;;;5.47;4.90;;;10.40;82.50;;;;;;5086041;28;20182;-58
2022/04/18 06:48:01;;;;;;;5.53;5.03;;;11.50;77.40;;;;;;5088517;28;20187;-59
2022/04/18 06:50:27;;;;;;;5.50;5.10;;;12.50;73.60;;;;;;5089795;28;20319;-57
2022/04/18 06:52:54;;;;;;;5.33;4.83;;;13.70;68.60;;;;;;5093027;28;20184;-56
2022/04/18 06:55:20;;;;;;;5.25;4.38;;;14.30;65.00;;;;;;5090253;28;20222;-58
2022/04/18 06:57:45;;;;;;;5.43;5.03;;;14.40;63.10;;;;;;5092660;28;20664;-58
2022/04/18 07:00:11;;;;;;;5.20;4.67;;;15.50;61.10;;;;;;5092344;28;20208;-58
2022/04/18 07:02:44;;;;;;;4.80;4.40;;;17.10;55.70;;;;;;5090514;28;20180;-58
2022/04/18 07:05:10;;;;;;;4.63;4.25;;;19.50;52.50;;;;;;5088680;28;20549;-59
2022/04/18 07:07:36;;;;;;;4.47;4.10;;;20.70;46.60;;;;;;5089014;28;20733;-60
2022/04/18 07:10:02;;;;;;;4.93;4.50;;;22.70;43.60;;;;;;5092416;28;20688;-60
2022/04/18 07:12:28;;;;;;;4.67;4.27;;;24.50;39.70;;;;;;5092562;28;20475;-61
2022/04/18 07:14:55;;;;;;;5.30;4.90;;;25.00;37.30;;;;;;5089230;28;20505;-61
2022/04/18 07:17:21;;;;;;;5.83;5.23;;;26.20;35.30;;;;;;5084795;28;20707;-58
2022/04/18 07:19:47;;;;;;;4.90;4.50;;;26.20;34.20;;;;;;5087996;28;20434;-59
2022/04/18 07:22:12;;;;;;;5.33;4.83;;;27.30;34.30;;;;;;5089231;28;20500;-59
2022/04/18 07:24:38;;;;;;;5.27;4.87;;;27.20;32.90;;;;;;5083818;28;20240;-57
2022/04/18 07:27:03;;;;;;;6.63;5.17;;;27.60;32.80;;;;;;5087207;28;20194;-58
2022/04/18 07:29:29;;;;;;;5.40;5.00;;;28.80;31.50;;;;;;5092826;28;20200;-59
2022/04/18 07:31:54;;;;;;;5.40;5.00;;;29.90;29.70;;;;;;5092307;28;20192;-58
2022/04/18 07:34:20;;;;;;;6.33;5.83;;;30.80;28.60;;;;;;5078889;28;20260;-57
2022/04/18 07:36:46;;;;;;;5.00;4.60;;;30.50;27.60;;;;;;5087484;28;20192;-58
2022/04/18 07:39:12;;;;;;;4.87;4.47;;;29.60;28.10;;;;;;5092815;28;20516;-58
2022/04/18 07:41:37;;;;;;;4.73;4.43;;;29.80;29.80;;;;;;5088491;28;21057;-59
2022/04/18 07:44:03;;;;;;;5.33;4.83;;;30.60;28.50;;;;;;5089909;28;20205;-58
2022/04/18 07:46:29;;;;;;;4.93;4.53;;;30.90;27.90;;;;;;5079575;28;20199;-59
2022/04/18 07:48:55;;;;;;;6.40;4.70;;;31.50;26.90;;;;;;5095071;28;20574;-58
2022/04/18 07:51:41;;;;;;;5.40;5.00;;;29.80;27.10;;;;;;5081820;28;20459;-58
2022/04/18 07:54:09;;;;;;;5.33;4.83;;;28.80;27.10;;;;;;5091633;28;20488;-58
2022/04/18 07:56:35;;;;;;;4.67;4.27;;;25.70;29.70;;;;;;5082384;28;20531;-59
2022/04/18 07:59:01;;;;;;;4.50;4.10;;;27.10;28.80;;;;;;5085735;28;20461;-59
2022/04/18 08:01:27;;;;;;;4.07;3.77;;;27.00;28.50;;;;;;5091784;28;20198;-59
2022/04/18 08:03:54;;;;;;;4.30;4.00;;;27.20;28.30;;;;;;5089861;28;20457;-59
2022/04/18 08:06:20;;;;;;;4.27;3.87;;;26.60;28.30;;;;;;5089394;28;20194;-60
2022/04/18 08:08:46;;;;;;;3.70;3.27;;;25.90;28.80;;;;;;5089590;28;20484;-60
2022/04/18 08:11:14;;;;;;;4.20;3.90;;;26.90;28.50;;;;;;5090552;28;20422;-59
2022/04/18 08:13:40;;;;;;;4.67;4.17;;;25.90;28.00;;;;;;5085663;28;20291;-59
2022/04/18 08:16:07;;;;;;;4.37;3.97;;;26.30;29.10;;;;;;5086880;28;21010;-60
2022/04/18 08:18:36;;;;;;;4.07;3.77;;;25.80;28.50;;;;;;5090815;28;20844;-58
2022/04/18 08:21:02;;;;;;;4.73;4.00;;;27.10;28.80;;;;;;5086429;28;20976;-57
2022/04/18 08:23:28;;;;;;;4.43;4.03;;;26.60;27.30;;;;;;5089996;28;20445;-57
2022/04/18 08:25:53;;;;;;;3.83;3.53;;;26.90;27.90;;;;;;5086811;28;20532;-61
2022/04/18 08:28:19;;;;;;;7.97;4.77;;;25.40;28.50;;;;;;5081585;28;20188;-62
2022/04/18 08:30:44;;;;;;;4.47;4.17;;;26.70;29.20;;;;;;5086739;28;20284;-59
2022/04/18 08:33:10;;;;;;;4.90;4.50;;;27.30;28.70;;;;;;5090686;28;20271;-60
2022/04/18 08:35:35;;;;;;;4.10;3.80;;;27.90;27.60;;;;;;5088638;28;20215;-59
2022/04/18 08:38:01;;;;;;;4.83;4.43;;;28.30;27.30;;;;;;5091300;28;20176;-60
2022/04/18 08:40:27;;;;;;;4.87;4.53;;;28.90;27.40;;;;;;5090393;28;20191;-60
2022/04/18 08:42:56;;;;;;;4.20;3.90;;;29.40;27.20;;;;;;5091026;28;20255;-60
2022/04/18 08:45:24;;;;;;;4.70;4.30;;;29.50;26.70;;;;;;5084543;28;20203;-61
2022/04/18 08:53:28;;;;;;;4.80;4.40;;;30.40;26.30;;;;;;5091640;28;20508;-60
2022/04/18 08:55:54;;;;;;;4.90;4.50;;;30.30;26.30;;;;;;5086886;28;20462;-61
2022/04/18 08:58:26;;;;;;;6.00;5.10;;;29.80;26.10;;;;;;5091269;28;20434;-59
2022/04/18 09:00:52;;;;;;;5.33;4.93;;;28.70;26.90;;;;;;5081912;28;21057;-60
2022/04/18 09:03:18;;;;;;;4.70;4.40;;;28.70;27.10;;;;;;5088983;28;20476;-60
2022/04/18 09:05:44;;;;;;;4.53;4.13;;;29.00;27.30;;;;;;5079053;28;20446;-61
2022/04/18 09:08:10;;;;;;;4.40;3.67;;;29.70;26.80;;;;;;5083526;28;20188;-62
2022/04/18 09:10:37;;;;;;;4.40;4.10;;;29.50;26.40;;;;;;5088449;28;20572;-62
2022/04/18 09:13:04;;;;;;;4.57;4.27;;;30.70;25.80;;;;;;5087050;28;20558;-61
2022/04/18 09:15:40;;;;;;;4.40;4.10;;;30.20;25.90;;;;;;5084126;28;20475;-62
2022/04/18 09:18:07;;;;;;;3.77;3.57;;;30.60;25.60;;;;;;5083105;28;20444;-63
2022/04/18 09:20:43;;;;;;;4.40;4.00;;;29.70;25.90;;;;;;5090556;28;20776;-62
2022/04/18 09:23:34;;;;;;;4.43;4.03;;;29.20;25.80;;;;;;5090282;28;21017;-63
2022/04/18 09:26:08;;;;;;;4.23;3.57;;;28.50;27.30;;;;;;5079847;28;20500;-61
2022/04/18 09:28:35;;;;;;;4.23;3.93;;;28.70;26.90;;;;;;5090367;28;20426;-61
2022/04/18 09:31:04;;;;;;;4.40;4.10;;;28.50;27.00;;;;;;5071719;28;20436;-61
2022/04/18 09:33:52;;;;;;;4.60;4.20;;;27.40;27.60;;;;;;5070970;28;20486;-61
2022/04/18 09:36:19;;;;;;;4.03;3.73;;;27.20;28.00;;;;;;5077613;28;20463;-61
2022/04/18 09:38:48;;;;;;;5.00;4.60;;;27.40;27.70;;;;;;5085663;28;20428;-62
2022/04/18 09:41:15;;;;;;;4.57;4.10;;;26.70;27.80;;;;;;5089670;28;20431;-61
2022/04/18 09:43:46;;;;;;;4.87;4.37;;;26.50;28.30;;;;;;5089041;28;20454;-61
2022/04/18 09:46:13;;;;;;;4.20;3.83;;;26.10;28.60;;;;;;5079233;28;20504;-62
2022/04/18 09:48:40;;;;;;;4.53;4.13;;;26.60;28.30;;;;;;5072289;28;20473;-61
2022/04/18 09:51:08;;;;;;;4.20;3.90;;;26.60;28.60;;;;;;5090539;28;20930;-61
2022/04/18 09:53:36;;;;;;;4.63;4.13;;;26.40;27.50;;;;;;5089716;28;20495;-61
2022/04/18 09:56:02;;;;;;;4.70;3.87;;;26.20;28.70;;;;;;5085981;28;20470;-62
2022/04/18 09:58:31;;;;;;;4.73;4.33;;;27.10;28.20;;;;;;5088084;28;20427;-62
2022/04/18 10:00:57;;;;;;;4.83;4.33;;;27.00;28.20;;;;;;5089411;28;20922;-62
2022/04/18 10:03:22;;;;;;;4.33;3.70;;;26.60;28.50;;;;;;5090513;28;20555;-61
2022/04/18 10:05:50;;;;;;;3.90;3.60;;;26.50;28.50;;;;;;5088058;28;20195;-61
2022/04/18 10:08:16;;;;;;;3.80;3.50;;;26.10;28.40;;;;;;5090175;28;20188;-61
2022/04/18 10:10:42;;;;;;;3.97;3.67;;;25.70;28.90;;;;;;5086061;28;20828;-61
2022/04/18 10:13:08;;;;;;;3.90;3.60;;;24.70;29.20;;;;;;5070052;28;20466;-61
2022/04/18 10:15:35;;;;;;;4.53;4.10;;;23.90;30.00;;;;;;5069374;28;20211;-61
2022/04/18 10:18:07;;;;;;;4.20;3.80;;;23.40;30.40;;;;;;5078156;28;20439;-61
2022/04/18 10:20:38;;;;;;;4.43;4.07;;;23.30;30.70;;;;;;5088170;28;20456;-61
2022/04/18 10:23:14;;;;;;;5.40;3.87;;;23.10;30.80;;;;;;5089633;28;20785;-61
2022/04/18 10:25:58;;;;;;;4.03;3.73;;;22.80;31.40;;;;;;5086403;28;20433;-62
2022/04/18 10:28:43;;;;;;;5.07;4.50;;;22.60;31.90;;;;;;5091371;28;20543;-62
2022/04/18 10:31:14;;;;;;;4.77;3.83;;;21.40;32.50;;;;;;5091463;28;20525;-61
2022/04/18 10:33:40;;;;;;;4.27;3.87;;;21.90;32.90;;;;;;5093839;28;20569;-61
2022/04/18 10:36:07;;;;;;;4.37;3.97;;;21.70;33.00;;;;;;5091529;28;20606;-61
2022/04/18 10:38:36;;;;;;;4.20;3.90;;;21.60;32.50;;;;;;5094369;28;20262;-61
2022/04/18 10:41:25;;;;;;;4.40;4.00;;;21.70;32.80;;;;;;5091024;28;20430;-61
2022/04/18 10:44:01;;;;;;;6.47;4.67;;;22.00;32.50;;;;;;5085209;28;20824;-62
2022/04/18 10:46:28;;;;;;;4.70;3.90;;;22.10;31.90;;;;;;5087319;28;20439;-62
2022/04/18 10:49:01;;;;;;;4.73;4.33;;;22.50;32.00;;;;;;5091709;28;20426;-62
2022/04/18 10:51:34;;;;;;;3.90;3.40;;;23.10;31.50;;;;;;5093149;28;20437;-62
2022/04/18 10:54:08;;;;;;;5.00;4.60;;;23.50;31.10;;;;;;5088132;28;20465;-60
2022/04/18 10:57:08;;;;;;;4.37;3.50;;;23.80;30.30;;;;;;5090119;28;20446;-60
2022/04/18 10:59:36;;;;;;;4.10;3.70;;;23.30;30.60;;;;;;5088815;28;20445;-61
2022/04/18 11:02:07;;;;;;;3.97;3.57;;;24.10;30.50;;;;;;5071915;28;20991;-61
2022/04/18 11:04:43;;;;;;;4.40;4.00;;;24.80;29.40;;;;;;5088505;28;20472;-62
2022/04/18 11:07:11;;;;;;;4.93;4.40;;;25.30;28.80;;;;;;5086860;28;20967;-61
2022/04/18 11:09:39;;;;;;;4.00;3.57;;;24.90;28.70;;;;;;5088303;28;20443;-61
2022/04/18 11:12:15;;;;;;;4.43;3.53;;;24.50;29.60;;;;;;5083381;28;20515;-62
2022/04/18 11:15:00;;;;;;;3.97;3.63;;;24.50;29.40;;;;;;5087984;28;20977;-61
2022/04/18 11:17:30;;;;;;;4.20;3.80;;;24.20;29.60;;;;;;5080618;28;20806;-61
2022/04/18 11:19:56;;;;;;;3.90;3.50;;;23.90;29.30;;;;;;5084527;28;20439;-62
2022/04/18 11:22:23;;;;;;;3.93;3.60;;;23.40;29.60;;;;;;5091007;28;20874;-62
2022/04/18 11:24:52;;;;;;;3.60;3.30;;;23.10;30.60;;;;;;5090251;28;20499;-62
2022/04/18 11:27:23;;;;;;;4.20;3.83;;;22.80;31.40;;;;;;5089254;28;20927;-61
2022/04/18 11:29:56;;;;;;;5.60;4.27;;;22.90;31.60;;;;;;5091128;28;20469;-61
2022/04/18 11:32:25;;;;;;;3.87;3.47;;;22.70;31.20;;;;;;5089349;28;20430;-61
2022/04/18 11:34:54;;;;;;;4.33;3.93;;;23.00;31.80;;;;;;5090485;28;20468;-61
2022/04/18 11:37:27;;;;;;;4.10;3.70;;;22.80;31.10;;;;;;5086959;28;20441;-62
2022/04/18 11:39:56;;;;;;;4.07;3.77;;;22.50;31.40;;;;;;5090742;28;20446;-62
2022/04/18 11:42:29;;;;;;;4.23;3.83;;;22.60;31.60;;;;;;5087641;28;20434;-61
2022/04/18 11:44:57;;;;;;;4.30;3.53;;;22.90;31.40;;;;;;5089248;28;20469;-62
2022/04/18 11:47:47;;;;;;;5.43;3.83;;;23.10;31.10;;;;;;5087725;28;20434;-61
2022/04/18 11:50:21;;;;;;;4.10;3.70;;;22.60;31.60;;;;;;5090353;28;20442;-61
2022/04/18 11:52:48;;;;;;;3.97;3.67;;;23.20;31.40;;;;;;5072708;28;20433;-61
2022/04/18 11:55:15;;;;;;;4.77;4.27;;;23.20;31.20;;;;;;5087885;28;20963;-61
2022/04/18 11:57:46;;;;;;;4.67;4.17;;;22.50;31.40;;;;;;5090586;28;20426;-61
2022/04/18 12:00:13;;;;;;;4.20;3.33;;;21.80;31.80;;;;;;5081487;28;20426;-61
2022/04/18 12:08:18;;;;;;;4.65;3.47;;;21.30;33.50;;;;;;5085600;28;20480;-61
2022/04/18 12:10:45;;;;;;;3.30;3.00;;;21.20;33.40;;;;;;5085726;28;20188;-61
2022/04/18 12:13:13;;;;;;;3.50;3.20;;;20.80;33.50;;;;;;5090787;28;20192;-61
2022/04/18 12:15:40;;;;;;;3.55;3.20;;;20.60;33.90;;;;;;5089705;28;20235;-61
2022/04/18 12:18:09;;;;;;;4.00;3.60;;;20.30;34.20;;;;;;5090872;28;20184;-61
2022/04/18 12:20:35;;;;;;;3.55;3.25;;;19.70;34.70;;;;;;5073174;28;20177;-61
2022/04/18 12:23:02;;;;;;;4.50;3.40;;;19.60;35.30;;;;;;5089802;28;20605;-62
2022/04/18 12:25:30;;;;;;;3.25;3.05;;;19.40;35.70;;;;;;5089330;28;20483;-62
2022/04/18 12:27:58;;;;;;;3.72;3.42;;;19.50;35.70;;;;;;5084652;28;20222;-62
2022/04/18 12:30:24;;;;;;;3.70;3.38;;;19.40;35.50;;;;;;5088746;28;20218;-62
2022/04/18 12:32:50;;;;;;;3.60;3.30;;;19.10;35.50;;;;;;5083221;28;20184;-61
2022/04/18 12:35:38;;;;;;;4.70;3.10;;;19.00;36.00;;;;;;5083582;28;20220;-62
2022/04/18 12:38:05;;;;;;;3.53;3.22;;;18.70;36.10;;;;;;5088038;28;20426;-62
2022/04/18 12:40:37;;;;;;;4.07;3.78;;;18.90;36.50;;;;;;5089352;28;20267;-61
2022/04/18 12:43:08;;;;;;;5.43;4.85;;;18.70;36.90;;;;;;5089427;28;20207;-61
2022/04/18 12:45:48;;;;;;;4.50;4.10;;;18.90;37.00;;;;;;5083080;28;20237;-62
2022/04/18 12:48:25;;;;;;;3.60;2.90;;;19.10;37.40;;;;;;5089541;28;20715;-62
2022/04/18 12:50:52;;;;;;;3.47;2.95;;;18.90;36.90;;;;;;5086481;28;20180;-62
2022/04/18 12:53:18;;;;;;;3.08;2.88;;;18.90;36.60;;;;;;5087220;28;20677;-61
2022/04/18 12:55:44;;;;;;;3.50;3.20;;;19.00;36.60;;;;;;5085518;28;20273;-62
2022/04/18 12:58:21;;;;;;;3.70;3.40;;;19.10;36.40;;;;;;5089968;28;20176;-62
2022/04/18 13:00:50;;;;;;;3.90;3.35;;;19.10;36.30;;;;;;5081334;28;20479;-62
2022/04/18 13:03:17;;;;;;;4.47;3.13;;;19.20;36.80;;;;;;5086600;28;20281;-61
2022/04/18 13:05:44;;;;;;;4.22;3.30;;;19.10;36.30;;;;;;5091964;28;20200;-62
2022/04/18 13:08:11;;;;;;;3.30;3.00;;;18.90;36.40;;;;;;5088429;28;20214;-62
2022/04/18 13:10:44;;;;;;;4.65;3.10;;;18.90;36.30;;;;;;5095850;27;20757;-60
2022/04/18 13:13:13;;;;;;;3.22;2.70;;;18.90;36.30;;;;;;5085548;28;20228;-60
2022/04/18 13:15:40;;;;;;;3.05;2.85;;;18.80;36.10;;;;;;5080162;28;20355;-61